イスタンブル の空港の天気 - METARとTAF

アタテュルク国際空港(イスタンブル) ( LTBA / IST ) - トルコ イスタンブル
飛行場実況気象(Metar)
観測時間01/19 00:20 EET (01/18 21:20 UTC)
風向・風速西 4m/s
視程10km以上
天気現象
なし
気温4℃
湿度60%
気圧1013hPa
METARLTBA 182120Z 27008KT CAVOK 04/M03 Q1013 NOSIG RMK RWY17L 28007KT RWY05 27009KT RWY23 28009KT
過去の天気等 Google飛行場航空写真 Wunderground天気予報

過去48時間のMETAR

飛行場予報(TAF)
発表時間: 1/18 19:40 EET (1/18 16:40 UTC)
予報対象時間: 18日21時 EET ~ 20日3時 EET
風向・風速西北西 7m/s
視程10km以上
全天の4割程度の雲 雲底高度 980m
全天の8割程度の雲 雲底高度 3,050m
18日21時 EET ~ 18日24時 EET に徐々に
視程10km以上
なし
19日10時 EET ~ 19日13時 EET に徐々に
風向・風速南西 8m/s
全天の4割程度の雲 雲底高度 1,070m
全天の8割程度の雲 雲底高度 2,740m
TAF LTBA 181640Z 1818/1924 30013KT 9999 SCT032 BKN100
BECMG 1818/1821 CAVOK
BECMG 1907/1910 22015KT SCT035 BKN090